Flight Track Log - Related Links

Times and Time Zones

All times are in EDT time to prevent confusion due to time zone crossing. See the KAP444 flight status page for this flight to view local times or setup timezone preferences in your user account.

Time Position Orientation Groundspeed Altitude Reporting Facility
EDT Latitude Longitude Course Direction KTS MPH feet Rate Location/Type
Fri 08:09:19 PM 18.4333 -65.9667 90° East 90 104 900  Level San Juan Center
Fri 08:10:19 PM 18.4333 -65.9500 90° East 110 127 1,500 595 Climbing San Juan Center
Fri 08:11:20 PM 18.4500 -65.9167 62° Northeast 110 127 2,100 595 Climbing San Juan Center
Fri 08:12:20 PM 18.4667 -65.8833 62° Northeast 100 115 2,700 600 Climbing San Juan Center
Fri 08:13:20 PM 18.4667 -65.8500 90° East 120 138 3,300 595 Climbing San Juan Center
Fri 08:14:21 PM 18.4667 -65.8333 90° East 120 138 3,900 545 Climbing San Juan Center
Fri 08:15:21 PM 18.4833 -65.8000 62° Northeast 100 115 4,400 550 Climbing San Juan Center
Fri 08:16:21 PM 18.4833 -65.7667 90° East 110 127 5,000 298 Climbing San Juan Center
Fri 08:17:22 PM 18.4833 -65.7333 90° East 140 161 5,000  Level San Juan Center
Fri 08:18:22 PM 18.4667 -65.6833 109° East 150 173 5,000  Level San Juan Center
Fri 08:19:22 PM 18.4667 -65.6333 90° East 160 184 5,000  Level San Juan Center
Fri 08:20:22 PM 18.4667 -65.5833 90° East 160 184 5,000  Level San Juan Center
Fri 08:21:23 PM 18.4667 -65.5500 90° East 150 173 5,000  Level San Juan Center
Fri 08:22:23 PM 18.4667 -65.5000 90° East 170 196 5,000  Level San Juan Center
Fri 08:23:23 PM 18.4667 -65.4667 90° East 150 173 5,000  Level San Juan Center
Fri 08:24:24 PM 18.4667 -65.4167 90° East 150 173 5,000  Level San Juan Center
Fri 08:25:24 PM 18.4667 -65.3667 90° East 150 173 5,000  Level San Juan Center
Fri 08:26:24 PM 18.4667 -65.3333 90° East 140 161 5,000  Level San Juan Center
Fri 08:27:25 PM 18.4500 -65.2833 109° East 150 173 5,000  Level San Juan Center
Fri 08:28:25 PM 18.4500 -65.2500 90° East 150 173 5,000  Level San Juan Center
Fri 08:29:25 PM 18.4333 -65.2000 109° East 140 161 5,000 -298 Level San Juan Center
Fri 08:30:26 PM 18.4333 -65.1500 90° East 170 196 4,400 -496 Descending San Juan Center
Fri 08:31:26 PM 18.4333 -65.1000 90° East 160 184 4,000 -550 Descending San Juan Center
Fri 08:32:26 PM 18.4333 -65.0667 90° East 170 196 3,300 -350 Descending San Juan Center
Fri 08:33:26 PM 18.4167 -65.0167 109° East 160 184 3,300  Level San Juan Center
Fri 08:34:26 PM 18.4167 -64.9667 90° East 140 161 3,300  Level San Juan Center
Fri 08:35:27 PM 18.4167 -64.9333 90° East 140 161 3,300 -298 Level San Juan Center
Fri 08:36:27 PM 18.4000 -64.8833 109° East 160 184 2,700 -450 Descending San Juan Center
Fri 08:37:27 PM 18.3833 -64.8333 109° East 160 184 2,400 -256 Descending San Juan Center
Fri 08:40:00 PM 18.4006 -64.7728 73° East  Level FlightAware Approximate
Fri 08:41:08 PM 18.3333 -64.7000 73° East 150 173 1,500  Level San Juan Center
Fri 08:42:09 PM 18.3333 -64.6500 90° East 160 184 1,400 -98 Descending San Juan Center
Fri 08:44:00 PM 18.3819 -64.5934 48° Northeast  Level FlightAware Approximate
Fri 08:51:00 PM 18.4333 -64.5333 82° East  Level FlightAware Approximate

Login

Don't have an account? Register now (free) for customized features, flight alerts, and more!